Time;durP1;ratioP1;P1;durP2;ratioP2;P2;SDS_P1;SDS_P2;PMS_P1;PMS_P2;Temp;Humidity;BMP_temperature;BMP_pressure;BME280_temperature;BME280_humidity;BME280_pressure;Samples;Min_cycle;Max_cycle;Signal;HPM_P1;HPM_P2
2024/02/28 00:01:25;;;;;;;85.40;29.60;;;;;;;7.68;92.08;100989.60;102853;1314;25400;-56
2024/02/28 00:03:50;;;;;;;88.90;30.70;;;;;;;7.68;92.02;100993.02;102743;1314;22877;-58
2024/02/28 00:06:17;;;;;;;89.50;31.00;;;;;;;7.68;92.15;100992.50;102875;1292;24179;-57
2024/02/28 00:08:42;;;;;;;77.40;30.70;;;;;;;7.69;92.10;100995.94;102821;1292;24347;-59
2024/02/28 00:11:08;;;;;;;76.50;28.50;;;;;;;7.66;92.13;100998.52;102858;1315;22799;-58
2024/02/28 00:13:33;;;;;;;71.90;28.40;;;;;;;7.63;92.12;100999.36;102865;1314;22563;-58
2024/02/28 00:15:59;;;;;;;82.50;30.90;;;;;;;7.60;92.07;101000.21;102819;1314;24307;-59
2024/02/28 00:18:24;;;;;;;66.50;28.30;;;;;;;7.59;92.02;100995.23;102749;1311;24639;-59
2024/02/28 00:20:50;;;;;;;71.30;29.20;;;;;;;7.56;92.08;100995.91;102831;1307;23284;-58
2024/02/28 00:23:15;;;;;;;69.50;31.00;;;;;;;7.54;92.06;100997.62;102857;1307;22562;-57
2024/02/28 00:25:41;;;;;;;67.70;29.90;;;;;;;7.51;92.18;101001.73;102789;1311;25295;-59
2024/02/28 00:28:06;;;;;;;73.70;29.40;;;;;;;7.50;92.33;101004.47;102676;1311;279841;-57
2024/02/28 00:30:32;;;;;;;68.20;29.50;;;;;;;7.47;92.48;100999.14;102771;1298;25361;-59
2024/02/28 00:32:59;;;;;;;65.00;30.00;;;;;;;7.44;92.32;101000.86;102842;1314;22602;-59
2024/02/28 00:35:24;;;;;;;69.30;29.30;;;;;;;7.41;92.24;100999.81;102964;1308;25389;-58
2024/02/28 00:37:50;;;;;;;68.70;29.00;;;;;;;7.38;92.28;100999.11;102931;1310;22597;-59
2024/02/28 00:40:15;;;;;;;65.50;29.10;;;;;;;7.35;92.33;100998.94;102782;1295;22581;-58
2024/02/28 00:42:41;;;;;;;60.60;27.90;;;;;;;7.32;92.38;100997.04;102910;1291;22988;-58
2024/02/28 00:45:09;;;;;;;59.30;26.80;;;;;;;7.30;92.40;100995.48;102767;1314;24140;-57
2024/02/28 00:47:35;;;;;;;58.20;26.60;;;;;;;7.30;92.51;100997.71;102920;1308;22587;-56
2024/02/28 00:50:02;;;;;;;53.10;26.90;;;;;;;7.29;92.66;101000.29;102928;1299;25171;-59
2024/02/28 00:52:29;;;;;;;60.20;27.20;;;;;;;7.30;92.48;100998.75;102793;1311;22683;-58
2024/02/28 00:54:55;;;;;;;57.10;28.00;;;;;;;7.29;92.40;100995.15;103988;1308;22602;-56
2024/02/28 00:57:20;;;;;;;53.40;26.00;;;;;;;7.27;92.23;100997.55;102921;1310;22798;-57
2024/02/28 00:59:46;;;;;;;55.90;27.40;;;;;;;7.24;92.26;100994.80;102861;1295;25289;-58
2024/02/28 01:02:11;;;;;;;55.50;28.50;;;;;;;7.21;92.41;100999.77;102860;1314;26896;-57
2024/02/28 01:04:37;;;;;;;52.50;27.80;;;;;;;7.21;92.75;100995.66;102816;1313;22711;-53
2024/02/28 01:07:03;;;;;;;53.30;26.70;;;;;;;7.22;92.82;100993.43;102842;1315;22574;-58
2024/02/28 01:09:28;;;;;;;55.20;26.70;;;;;;;7.25;92.92;100994.13;102686;1301;23379;-59
2024/02/28 01:11:54;;;;;;;47.60;26.70;;;;;;;7.24;92.73;100997.39;103471;1293;22598;-57
2024/02/28 01:14:19;;;;;;;49.20;26.20;;;;;;;7.24;92.68;100996.70;103595;1314;22567;-61
2024/02/28 01:16:45;;;;;;;52.50;26.70;;;;;;;7.24;92.83;100999.78;103478;1307;25389;-63
2024/02/28 01:19:11;;;;;;;58.50;28.30;;;;;;;7.26;92.92;101002.19;103406;1308;25319;-60
2024/02/28 01:21:36;;;;;;;54.10;27.80;;;;;;;7.29;93.01;101000.11;103429;1297;25369;-58
2024/02/28 01:24:02;;;;;;;48.50;25.10;;;;;;;7.30;92.92;101000.12;103306;1308;22600;-59
2024/02/28 01:26:28;;;;;;;50.30;27.00;;;;;;;7.28;92.52;101006.64;103533;1315;22538;-59
2024/02/28 01:28:53;;;;;;;53.80;27.80;;;;;;;7.22;92.46;101005.61;103473;1313;22825;-58
2024/02/28 01:31:18;;;;;;;48.70;26.60;;;;;;;7.20;92.73;101007.14;102806;1293;25244;-59
2024/02/28 01:33:44;;;;;;;47.90;25.30;;;;;;;7.22;93.06;101003.55;102784;1309;22574;-58
2024/02/28 01:36:11;;;;;;;48.50;25.80;;;;;;;7.25;93.14;100998.93;102866;1306;25738;-58
2024/02/28 01:38:37;;;;;;;57.10;27.70;;;;;;;7.29;93.22;100995.31;102895;1302;22604;-58
2024/02/28 01:41:04;;;;;;;50.60;25.20;;;;;;;7.30;93.12;100992.73;102841;1297;22726;-59
2024/02/28 01:43:29;;;;;;;48.80;25.50;;;;;;;7.30;93.23;100993.60;104618;1310;22750;-62
2024/02/28 01:45:56;;;;;;;56.70;28.30;;;;;;;7.33;93.27;100997.55;102900;1308;23539;-59
2024/02/28 01:48:22;;;;;;;53.10;27.50;;;;;;;7.34;93.30;100994.81;102778;1316;22832;-57
2024/02/28 01:50:47;;;;;;;59.70;27.80;;;;;;;7.35;93.27;100993.45;102946;1292;22823;-59
2024/02/28 01:53:14;;;;;;;57.60;28.60;;;;;;;7.35;93.23;100990.02;99086;1304;5003978;-58
2024/02/28 01:55:40;;;;;;;49.90;25.50;;;;;;;7.35;93.08;100987.10;102768;1310;22579;-58
2024/02/28 01:58:06;;;;;;;53.90;27.20;;;;;;;7.33;93.18;100982.98;102932;1313;22710;-57
2024/02/28 02:00:33;;;;;;;50.80;26.90;;;;;;;7.33;93.29;100982.29;102806;1315;25551;-57
2024/02/28 02:03:00;;;;;;;;;;;;;;;7.34;93.24;100983.33;106485;1297;26850;-57
2024/02/28 02:05:25;;;;;;;;;;;;;;;7.32;93.22;100978.17;102990;1314;25475;-58
2024/02/28 02:07:51;;;;;;;43.80;23.30;;;;;;;7.30;93.15;100979.02;102839;1310;22584;-57
2024/02/28 02:10:17;;;;;;;47.90;24.30;;;;;;;7.29;93.26;100980.23;102851;1314;22606;-58
2024/02/28 02:12:42;;;;;;;51.70;24.50;;;;;;;7.30;93.27;100976.80;104229;1297;22696;-56
2024/02/28 02:15:08;;;;;;;41.70;23.90;;;;;;;7.31;93.26;100977.66;102874;1310;22763;-56
2024/02/28 02:17:33;;;;;;;47.50;24.80;;;;;;;7.31;93.25;100978.86;102705;1309;22562;-57
2024/02/28 02:19:59;;;;;;;49.30;25.10;;;;;;;7.29;93.16;100979.03;102910;1310;22635;-57
2024/02/28 02:22:29;;;;;;;47.80;25.30;;;;;;;7.26;93.22;100979.90;102887;1310;22688;-58
2024/02/28 02:24:55;;;;;;;45.00;23.50;;;;;;;7.27;93.36;100978.00;102793;1310;23066;-58
2024/02/28 02:27:20;;;;;;;48.10;25.40;;;;;;;7.26;93.20;100982.81;102770;1315;22600;-58
2024/02/28 02:29:46;;;;;;;48.60;25.80;;;;;;;7.23;93.15;100980.23;102782;1315;25344;-58
2024/02/28 02:32:11;;;;;;;45.20;23.30;;;;;;;7.21;93.08;100977.30;102800;1313;22904;-57
2024/02/28 02:34:37;;;;;;;49.20;25.50;;;;;;;7.18;92.99;100975.76;102926;1292;23117;-58
2024/02/28 02:37:04;;;;;;;46.00;23.30;;;;;;;7.17;93.03;100978.16;102876;1310;23006;-58
2024/02/28 02:39:29;;;;;;;;;;;;;;;7.13;92.94;100972.31;103045;1310;22818;-56
2024/02/28 02:41:55;;;;;;;46.70;23.50;;;;;;;7.10;93.05;100969.38;102876;1307;25285;-57
2024/02/28 02:44:20;;;;;;;49.10;23.10;;;;;;;7.08;93.03;100969.71;102822;1315;23692;-57
2024/02/28 02:46:45;;;;;;;53.10;24.30;;;;;;;7.08;93.32;100967.48;102916;1292;22569;-58
2024/02/28 02:49:11;;;;;;;49.90;23.90;;;;;;;7.09;93.12;100970.06;102830;1308;22568;-59
2024/02/28 02:51:37;;;;;;;49.10;24.00;;;;;;;7.08;93.23;100971.44;102787;1292;25347;-57
2024/02/28 02:54:02;;;;;;;48.30;23.10;;;;;;;7.09;93.49;100971.44;102913;1298;26241;-58
2024/02/28 02:56:28;;;;;;;49.70;24.50;;;;;;;7.10;93.50;100974.02;102668;1308;24358;-57
2024/02/28 02:58:54;;;;;;;52.80;25.10;;;;;;;7.12;93.52;100972.64;102876;1311;25304;-59
2024/02/28 03:01:19;;;;;;;54.10;25.10;;;;;;;7.14;93.49;100974.20;102875;1314;24304;-57
2024/02/28 03:03:45;;;;;;;50.00;24.20;;;;;;;7.15;93.52;100974.88;102836;1297;22602;-58
2024/02/28 03:06:11;;;;;;;47.60;23.90;;;;;;;7.16;93.60;100972.66;102835;1301;23062;-59
2024/02/28 03:08:36;;;;;;;49.90;23.50;;;;;;;7.16;93.30;100977.63;102803;1301;25455;-58
2024/02/28 03:11:04;;;;;;;53.30;23.40;;;;;;;7.13;93.31;100979.34;102726;1314;25401;-59
2024/02/28 03:13:30;;;;;;;50.20;24.00;;;;;;;7.13;93.50;100978.48;102815;1297;22591;-56
2024/02/28 03:15:55;;;;;;;64.90;26.50;;;;;;;7.13;93.53;100975.91;102941;1300;24091;-57
2024/02/28 03:18:21;;;;;;;53.30;25.20;;;;;;;7.14;93.49;100975.73;102930;1311;22604;-57
2024/02/28 03:20:46;;;;;;;57.90;26.10;;;;;;;7.12;93.08;100968.88;102932;1314;22575;-58
2024/02/28 03:23:11;;;;;;;66.60;26.80;;;;;;;7.07;93.24;100972.27;102871;1297;25681;-58
2024/02/28 03:25:37;;;;;;;62.70;24.70;;;;;;;7.07;93.55;100971.25;102824;1315;24744;-59
2024/02/28 03:28:03;;;;;;;56.90;25.50;;;;;;;7.07;93.58;100977.94;102820;1308;25469;-57
2024/02/28 03:30:31;;;;;;;58.40;26.60;;;;;;;7.08;93.60;100983.77;102851;1313;22590;-59
2024/02/28 03:32:56;;;;;;;62.90;26.70;;;;;;;7.09;93.55;100985.15;102730;1292;25526;-59
2024/02/28 03:35:22;;;;;;;60.00;26.00;;;;;;;7.05;93.60;100983.25;102890;1307;26260;-58
2024/02/28 03:37:47;;;;;;;68.00;28.70;;;;;;;7.06;93.74;100983.94;102922;1308;22710;-59
2024/02/28 03:40:14;;;;;;;75.20;27.90;;;;;;;7.07;93.74;100984.11;102933;1292;22698;-56
2024/02/28 03:42:40;;;;;;;62.50;27.70;;;;;;;7.06;93.48;100983.95;102799;1314;23117;-58
2024/02/28 03:45:06;;;;;;;72.00;27.20;;;;;;;7.05;93.51;100984.79;102793;1297;22617;-57
2024/02/28 03:47:31;;;;;;;69.20;28.60;;;;;;;7.05;93.49;100985.30;102835;1301;24966;-55
2024/02/28 03:49:57;;;;;;;64.60;27.20;;;;;;;7.02;93.59;100985.30;102880;1301;24395;-58
2024/02/28 03:52:23;;;;;;;58.70;25.30;;;;;;;7.04;93.85;100987.70;102832;1315;25666;-57
2024/02/28 03:54:49;;;;;;;68.20;28.00;;;;;;;7.04;93.81;100990.10;104022;1292;22691;-57
2024/02/28 03:57:14;;;;;;;64.50;26.40;;;;;;;7.06;93.85;100990.79;102986;1314;22624;-58
2024/02/28 03:59:43;;;;;;;67.10;26.70;;;;;;;7.06;93.87;100991.98;102901;1314;24480;-57
2024/02/28 04:02:09;;;;;;;67.70;26.00;;;;;;;7.06;93.90;100989.76;102949;1308;22575;-57
2024/02/28 04:04:35;;;;;;;67.10;26.80;;;;;;;7.08;93.94;100986.69;102789;1297;25451;-56
2024/02/28 04:07:00;;;;;;;65.20;26.70;;;;;;;7.10;94.04;100991.15;102879;1311;25524;-57
2024/02/28 04:09:26;;;;;;;76.20;29.00;;;;;;;7.11;93.99;100989.96;102854;1315;25275;-56
2024/02/28 04:11:51;;;;;;;72.90;28.60;;;;;;;7.11;93.95;100991.50;102685;1301;22558;-57
2024/02/28 04:14:17;;;;;;;74.20;28.40;;;;;;;7.11;93.89;100991.67;102801;1298;24312;-58
2024/02/28 04:16:45;;;;;;;81.10;29.20;;;;;;;7.07;93.88;100992.68;102805;1315;22692;-58
2024/02/28 04:19:11;;;;;;;81.30;28.40;;;;;;;7.03;93.82;100990.61;102696;1301;23885;-57
2024/02/28 04:21:37;;;;;;;68.50;27.40;;;;;;;7.02;93.91;100994.38;102716;1301;25450;-58
2024/02/28 04:24:04;;;;;;;69.20;26.40;;;;;;;7.03;94.06;101000.54;102920;1311;22702;-58
2024/02/28 04:26:29;;;;;;;87.30;29.30;;;;;;;7.03;94.07;100997.30;107026;1301;23476;-59
2024/02/28 04:28:56;;;;;;;72.40;27.30;;;;;;;7.05;94.13;100998.33;104079;1298;22562;-59
2024/02/28 04:31:21;;;;;;;67.40;27.90;;;;;;;7.05;94.01;100997.64;102944;1314;22562;-57
2024/02/28 04:33:47;;;;;;;76.30;29.40;;;;;;;7.06;94.04;100990.61;102932;1292;25338;-58
2024/02/28 04:36:12;;;;;;;70.60;27.30;;;;;;;7.06;94.17;100993.19;102789;1308;22610;-57
2024/02/28 04:38:38;;;;;;;76.10;29.40;;;;;;;7.08;94.04;100995.08;102795;1315;22579;-58
2024/02/28 04:41:03;;;;;;;86.50;31.00;;;;;;;7.06;94.02;100998.68;102904;1301;25380;-57
2024/02/28 04:43:29;;;;;;;69.10;28.90;;;;;;;7.07;94.15;100999.88;102847;1314;22805;-57
2024/02/28 04:45:54;;;;;;;80.90;30.30;;;;;;;7.07;94.23;100997.65;102818;1300;24143;-58
2024/02/28 04:48:20;;;;;;;70.30;27.80;;;;;;;7.08;94.07;101000.06;102957;1313;22578;-59
2024/02/28 04:50:46;;;;;;;75.50;28.00;;;;;;;7.07;93.88;101005.02;102961;1301;22540;-58
2024/02/28 04:53:11;;;;;;;84.90;28.70;;;;;;;7.02;93.62;101010.14;102902;1315;22581;-58
2024/02/28 04:55:36;;;;;;;74.80;28.90;;;;;;;6.97;93.78;101012.52;102906;1296;22597;-58
2024/02/28 04:58:02;;;;;;;71.40;29.20;;;;;;;6.98;94.10;101009.77;102963;1302;25381;-59
2024/02/28 05:00:27;;;;;;;81.70;28.60;;;;;;;7.00;94.24;101011.16;102727;1309;22647;-58
2024/02/28 05:02:53;;;;;;;68.80;27.10;;;;;;;7.02;94.18;101016.66;102920;1307;22927;-58
2024/02/28 05:05:18;;;;;;;78.80;27.50;;;;;;;7.01;94.19;101017.67;102861;1297;22833;-58
2024/02/28 05:07:44;;;;;;;75.80;28.30;;;;;;;7.01;94.22;101016.13;102755;1305;27057;-58
2024/02/28 05:10:10;;;;;;;76.30;27.40;;;;;;;7.03;94.29;101013.91;102704;1313;25460;-58
2024/02/28 05:12:36;;;;;;;76.50;28.70;;;;;;;7.03;94.24;101016.66;102736;1302;25814;-58
2024/02/28 05:15:02;;;;;;;87.90;29.50;;;;;;;7.03;94.04;101023.86;102894;1295;22567;-58
2024/02/28 05:17:27;;;;;;;72.70;28.10;;;;;;;7.00;94.05;101025.73;102934;1301;22571;-58
2024/02/28 05:19:53;;;;;;;84.60;29.40;;;;;;;6.98;94.18;101028.80;102817;1302;25473;-59
2024/02/28 05:22:18;;;;;;;71.50;26.70;;;;;;;7.00;94.28;101030.86;102776;1300;22609;-58
2024/02/28 05:24:47;;;;;;;66.60;26.10;;;;;;;7.01;94.23;101034.48;102885;1295;22584;-58
2024/02/28 05:27:12;;;;;;;70.20;27.30;;;;;;;7.01;94.30;101032.59;102786;1301;23021;-56
2024/02/28 05:29:38;;;;;;;67.60;27.90;;;;;;;7.03;94.26;101034.14;102718;1297;25526;-59
2024/02/28 05:32:04;;;;;;;68.80;27.30;;;;;;;7.01;94.16;101031.73;102823;1314;24367;-57
2024/02/28 05:34:29;;;;;;;62.90;27.10;;;;;;;7.01;94.40;101037.73;102922;1314;27564;-58
2024/02/28 05:36:55;;;;;;;65.70;25.80;;;;;;;7.01;94.23;101037.22;102831;1300;22605;-59
2024/02/28 05:39:20;;;;;;;62.20;26.20;;;;;;;7.03;94.31;101040.83;102878;1298;22578;-58
2024/02/28 05:41:46;;;;;;;59.90;24.70;;;;;;;7.04;94.42;101042.89;102779;1301;22693;-59
2024/02/28 05:44:12;;;;;;;54.70;24.80;;;;;;;7.04;94.36;101045.13;102895;1307;25407;-58
2024/02/28 05:46:37;;;;;;;54.70;24.30;;;;;;;7.04;94.30;101050.95;102860;1295;24406;-59
2024/02/28 05:49:04;;;;;;;58.80;24.70;;;;;;;7.03;94.29;101054.89;102937;1291;22738;-59
2024/02/28 05:51:29;;;;;;;50.70;23.50;;;;;;;7.04;94.36;101061.41;102903;1291;25302;-59
2024/02/28 05:53:55;;;;;;;50.80;23.60;;;;;;;7.03;94.16;101062.24;102862;1307;24261;-60
2024/02/28 05:56:21;;;;;;;51.30;23.40;;;;;;;7.00;94.24;101066.52;102871;1295;22566;-59
2024/02/28 05:58:47;;;;;;;47.80;23.60;;;;;;;6.99;94.39;101069.94;102843;1307;22560;-59
2024/02/28 06:01:18;;;;;;;54.00;23.50;;;;;;;7.01;94.53;101072.88;102750;1311;22943;-59
2024/02/28 06:03:47;;;;;;;51.20;22.10;;;;;;;7.04;94.59;101073.73;106934;1313;22245;-59
2024/02/28 06:06:13;;;;;;;54.80;24.40;;;;;;;7.05;94.54;101083.17;106997;1295;22434;-60
2024/02/28 06:08:40;;;;;;;49.00;22.70;;;;;;;7.06;94.49;101084.73;107066;1308;22384;-60
2024/02/28 06:11:05;;;;;;;;;;;;;;;7.07;94.38;101088.34;107062;1314;23574;-59
2024/02/28 06:13:31;;;;;;;44.90;22.50;;;;;;;7.07;94.39;101087.99;107071;1314;22670;-60
2024/02/28 06:15:57;;;;;;;42.90;21.80;;;;;;;7.09;94.42;101088.69;103204;1292;22566;-60
2024/02/28 06:18:26;;;;;;;48.10;22.90;;;;;;;7.11;94.52;101088.52;102821;1307;22609;-59
2024/02/28 06:20:55;;;;;;;43.30;20.80;;;;;;;7.13;94.48;101090.94;102869;1292;22605;-59
2024/02/28 06:23:21;;;;;;;47.10;22.40;;;;;;;7.12;94.37;101093.16;102842;1311;24276;-59
2024/02/28 06:25:47;;;;;;;42.50;21.70;;;;;;;7.09;94.16;101096.06;102805;1307;24294;-59
2024/02/28 06:28:12;;;;;;;53.50;21.10;;;;;;;7.03;94.03;101104.94;102719;1297;25396;-60
2024/02/28 06:30:38;;;;;;;40.80;22.40;;;;;;;6.95;94.23;101105.57;102636;1301;25461;-59
2024/02/28 06:33:04;;;;;;;49.00;22.40;;;;;;;6.92;94.45;101104.17;102692;1307;22582;-58
2024/02/28 06:35:30;;;;;;;42.50;22.10;;;;;;;6.93;94.85;101103.84;102805;1315;22711;-59
2024/02/28 06:37:56;;;;;;;41.20;20.90;;;;;;;6.93;94.83;101100.59;102878;1295;22565;-58
2024/02/28 06:40:21;;;;;;;42.10;20.80;;;;;;;6.95;94.90;101104.02;102841;1300;22646;-59
2024/02/28 06:42:47;;;;;;;47.50;22.30;;;;;;;6.98;94.83;101103.70;102873;1300;24265;-59
2024/02/28 06:45:12;;;;;;;44.40;21.70;;;;;;;6.98;94.45;101103.20;102873;1307;22644;-58
2024/02/28 06:47:38;;;;;;;48.00;21.90;;;;;;;6.94;94.34;101100.09;102745;1297;22611;-58
2024/02/28 06:50:05;;;;;;;44.00;21.60;;;;;;;6.93;94.47;101100.58;102959;1307;22595;-57
2024/02/28 06:52:31;;;;;;;37.60;20.60;;;;;;;6.92;94.58;101110.69;107052;1311;22268;-58
2024/02/28 06:54:56;;;;;;;40.30;21.10;;;;;;;6.93;94.74;101109.67;107030;1303;22965;-59
2024/02/28 06:57:22;;;;;;;46.30;22.70;;;;;;;6.96;94.99;101106.95;107069;1296;22279;-59
2024/02/28 06:59:48;;;;;;;47.80;22.70;;;;;;;7.02;95.21;101111.10;106965;1301;22245;-58
2024/02/28 07:02:14;;;;;;;44.70;20.70;;;;;;;7.07;95.06;101118.16;106955;1313;22371;-57
2024/02/28 07:04:40;;;;;;;44.10;22.20;;;;;;;7.07;94.80;101122.96;107074;1307;22391;-60
2024/02/28 07:07:06;;;;;;;44.70;22.50;;;;;;;7.05;94.68;101130.66;106884;1298;22450;-59
2024/02/28 07:09:32;;;;;;;42.20;22.10;;;;;;;7.05;94.76;101138.20;106955;1314;22376;-59
2024/02/28 07:11:59;;;;;;;41.80;22.50;;;;;;;7.07;94.89;101144.21;107041;1307;22454;-59
2024/02/28 07:14:24;;;;;;;49.00;23.20;;;;;;;7.06;94.94;101145.23;107074;1307;22450;-58
2024/02/28 07:16:51;;;;;;;50.60;23.60;;;;;;;7.06;95.09;101141.30;107021;1292;22280;-59
2024/02/28 07:19:18;;;;;;;49.00;23.00;;;;;;;7.11;95.20;101143.73;107067;1297;22257;-59
2024/02/28 07:21:44;;;;;;;50.00;23.90;;;;;;;7.14;95.01;101147.52;106859;1311;22330;-59
2024/02/28 07:24:09;;;;;;;46.20;23.50;;;;;;;7.13;95.26;101149.92;107078;1307;22260;-60
2024/02/28 07:26:35;;;;;;;45.40;23.60;;;;;;;7.10;95.20;101145.78;107096;1307;23072;-57
2024/02/28 07:29:00;;;;;;;49.10;23.50;;;;;;;7.12;95.44;101146.48;107018;1292;22382;-60
2024/02/28 07:31:27;;;;;;;51.30;24.40;;;;;;;7.17;95.57;101144.80;107040;1307;23477;-59
2024/02/28 07:33:53;;;;;;;44.70;22.20;;;;;;;7.21;95.33;101143.46;107027;1307;22587;-58
2024/02/28 07:36:21;;;;;;;43.30;22.90;;;;;;;7.21;95.22;101145.68;106982;1307;22236;-60
2024/02/28 07:38:46;;;;;;;49.30;24.40;;;;;;;7.21;95.39;101146.20;106874;1298;22271;-59
2024/02/28 07:41:12;;;;;;;50.80;23.70;;;;;;;7.21;95.42;101147.91;106972;1315;22882;-59
2024/02/28 07:43:37;;;;;;;45.90;23.40;;;;;;;7.20;95.44;101149.62;106931;1311;22284;-60
2024/02/28 07:46:11;;;;;;;48.80;22.90;;;;;;;7.19;95.52;101153.05;106931;1309;22449;-60
2024/02/28 07:48:37;;;;;;;45.70;22.20;;;;;;;7.19;95.50;101150.81;106978;1295;22371;-59
2024/02/28 07:51:06;;;;;;;45.90;23.90;;;;;;;7.20;95.68;101152.36;106985;1299;22419;-60
2024/02/28 07:53:31;;;;;;;49.20;24.10;;;;;;;7.24;95.92;101156.34;106857;1309;22285;-59
2024/02/28 07:55:57;;;;;;;50.90;23.20;;;;;;;7.25;95.96;101157.55;102958;1309;23841;-58
2024/02/28 07:58:22;;;;;;;47.70;23.40;;;;;;;7.27;95.96;101157.20;102853;1298;24223;-58
2024/02/28 08:00:48;;;;;;;49.70;24.20;;;;;;;7.33;96.35;101152.77;102655;1308;22753;-57
2024/02/28 08:03:13;;;;;;;46.90;23.00;;;;;;;7.28;96.18;101149.83;102859;1301;23764;-57
2024/02/28 08:05:39;;;;;;;48.80;24.50;;;;;;;7.31;96.27;101153.77;102740;1302;22606;-58
2024/02/28 08:08:08;;;;;;;45.10;23.40;;;;;;;7.36;96.25;101155.52;102814;1292;22590;-59
2024/02/28 08:10:35;;;;;;;41.20;21.60;;;;;;;7.39;96.14;101156.39;102720;1308;22564;-58
2024/02/28 08:13:01;;;;;;;44.70;22.30;;;;;;;7.41;96.28;101154.52;107043;1314;22270;-59
2024/02/28 08:15:27;;;;;;;43.80;23.40;;;;;;;7.38;96.28;101156.91;107033;1314;22671;-59
2024/02/28 08:17:53;;;;;;;41.80;21.90;;;;;;;7.40;96.53;101162.75;107056;1311;22273;-57
2024/02/28 08:20:18;;;;;;;38.60;21.60;;;;;;;7.38;96.32;101164.63;106991;1298;22292;-59
2024/02/28 08:22:44;;;;;;;43.20;22.30;;;;;;;7.40;96.34;101164.80;106960;1308;22403;-59
2024/02/28 08:25:11;;;;;;;36.70;20.90;;;;;;;7.45;96.51;101167.40;106905;1310;22403;-59
2024/02/28 08:27:37;;;;;;;41.90;22.00;;;;;;;7.47;96.78;101168.96;106999;1311;22245;-59
2024/02/28 08:30:06;;;;;;;41.10;21.70;;;;;;;7.45;96.86;101167.75;106884;1294;23274;-59
2024/02/28 08:32:32;;;;;;;38.40;20.60;;;;;;;7.46;96.85;101168.61;106966;1314;22237;-59
2024/02/28 08:34:58;;;;;;;40.00;21.00;;;;;;;7.51;96.73;101168.30;107069;1298;22508;-59
2024/02/28 08:37:23;;;;;;;40.50;21.00;;;;;;;7.55;96.74;101172.44;107014;1307;22432;-59
2024/02/28 08:39:49;;;;;;;34.60;20.00;;;;;;;7.60;96.80;101168.36;106970;1295;22280;-57
2024/02/28 08:42:15;;;;;;;34.30;19.10;;;;;;;7.63;96.87;101171.28;107047;1311;22231;-58
2024/02/28 08:44:40;;;;;;;35.80;19.30;;;;;;;7.64;96.75;101173.69;107051;1297;22486;-58
2024/02/28 08:47:09;;;;;;;33.40;19.10;;;;;;;7.69;96.95;101171.83;107057;1311;22279;-59
2024/02/28 08:49:35;;;;;;;33.70;18.80;;;;;;;7.69;96.86;101176.11;107051;1298;22279;-59
2024/02/28 08:52:01;;;;;;;31.70;17.90;;;;;;;7.68;96.82;101177.31;106928;1308;22448;-59
2024/02/28 08:54:26;;;;;;;33.20;17.60;;;;;;;7.67;96.78;101180.23;107077;1310;23327;-59
2024/02/28 08:56:51;;;;;;;34.30;17.40;;;;;;;7.71;96.81;101180.41;107021;1314;22279;-58
2024/02/28 08:59:17;;;;;;;38.10;19.10;;;;;;;7.74;96.86;101179.23;107026;1293;22253;-57
2024/02/28 09:01:43;;;;;;;34.40;19.10;;;;;;;7.75;96.79;101182.15;107020;1314;22342;-60
2024/02/28 09:04:08;;;;;;;35.80;18.10;;;;;;;7.78;96.83;101182.85;107076;1308;22286;-59
2024/02/28 09:06:34;;;;;;;37.50;20.90;;;;;;;7.75;96.74;101181.63;107066;1307;22240;-58
2024/02/28 09:08:59;;;;;;;38.30;19.30;;;;;;;7.73;96.89;101186.09;107027;1308;23054;-59
2024/02/28 09:11:25;;;;;;;40.00;19.80;;;;;;;7.75;96.98;101180.77;107036;1294;22448;-58
2024/02/28 09:13:51;;;;;;;38.80;20.30;;;;;;;7.71;96.92;101183.16;107075;1314;22247;-59
2024/02/28 09:16:16;;;;;;;47.70;21.20;;;;;;;7.74;97.25;101184.71;107037;1308;22365;-59
2024/02/28 09:18:42;;;;;;;39.50;20.90;;;;;;;7.69;97.10;101189.33;106122;1314;23932;-59
2024/02/28 09:21:10;;;;;;;40.40;20.90;;;;;;;7.64;96.98;101187.07;102768;1298;24239;-58
2024/02/28 09:23:36;;;;;;;39.40;19.70;;;;;;;7.59;97.33;101191.00;102910;1307;22684;-57
2024/02/28 09:26:05;;;;;;;32.40;18.10;;;;;;;7.57;97.38;101196.48;102936;1307;25347;-57
2024/02/28 09:28:31;;;;;;;37.10;15.90;;;;;;;7.55;97.47;101198.52;106833;1307;22255;-58
2024/02/28 09:30:57;;;;;;;25.50;15.00;;;;;;;7.50;97.67;101201.59;106974;1295;23123;-60
2024/02/28 09:33:23;;;;;;;23.80;13.70;;;;;;;7.44;97.74;101205.65;107035;1308;22292;-59
2024/02/28 09:35:48;;;;;;;33.30;12.60;;;;;;;7.34;98.56;101206.27;106988;1308;22499;-57
2024/02/28 09:38:14;;;;;;;20.20;12.00;;;;;;;7.25;98.33;101208.48;107021;1308;22458;-59
2024/02/28 09:40:40;;;;;;;20.20;12.70;;;;;;;7.24;97.98;101208.64;106978;1298;22397;-59
2024/02/28 09:43:07;;;;;;;20.70;12.00;;;;;;;7.29;98.01;101211.22;107088;1311;23515;-59
2024/02/28 09:45:33;;;;;;;19.30;12.40;;;;;;;7.39;97.97;101215.40;106922;1310;22338;-59
2024/02/28 09:48:00;;;;;;;17.20;11.50;;;;;;;7.45;97.89;101219.55;107050;1311;22293;-59
2024/02/28 09:50:27;;;;;;;19.60;12.20;;;;;;;7.46;97.96;101221.27;107049;1297;22434;-59
2024/02/28 09:52:55;;;;;;;18.50;12.00;;;;;;;7.44;97.84;101223.16;106968;1307;22821;-60
2024/02/28 09:55:20;;;;;;;18.50;11.90;;;;;;;7.49;97.89;101225.06;106849;1307;22465;-59
2024/02/28 09:57:50;;;;;;;17.90;11.10;;;;;;;7.50;97.71;101223.88;106988;1310;22351;-59
2024/02/28 10:00:20;;;;;;;28.40;11.70;;;;;;;7.48;97.65;101231.58;107000;1293;22276;-60
2024/02/28 10:02:50;;;;;;;15.70;10.10;;;;;;;7.47;97.56;101230.36;106935;1308;22974;-60
2024/02/28 10:05:18;;;;;;;16.90;9.90;;;;;;;7.47;97.44;101233.63;107062;1311;22992;-59
2024/02/28 10:07:45;;;;;;;15.00;9.90;;;;;;;7.44;97.44;101236.88;106797;1310;22270;-59
2024/02/28 10:10:10;;;;;;;19.30;10.00;;;;;;;7.44;97.49;101234.64;106955;1307;22364;-59
2024/02/28 10:12:41;;;;;;;18.00;10.60;;;;;;;7.47;97.53;101233.98;106965;1296;22427;-59
2024/02/28 10:15:06;;;;;;;16.70;10.30;;;;;;;7.50;97.67;101233.48;106908;1313;23222;-58
2024/02/28 10:17:32;;;;;;;17.30;10.40;;;;;;;7.54;97.64;101236.08;106959;1304;22249;-59
2024/02/28 10:20:00;;;;;;;12.00;8.50;;;;;;;7.56;97.43;101237.64;106982;1308;22398;-59
2024/02/28 10:22:26;;;;;;;14.80;8.90;;;;;;;7.55;97.27;101241.41;104272;1298;22594;-58
2024/02/28 10:25:00;;;;;;;13.10;9.80;;;;;;;7.56;97.39;101248.45;102889;1311;22743;-59
2024/02/28 10:27:26;;;;;;;11.60;8.50;;;;;;;7.55;97.32;101252.22;102833;1307;23431;-57
2024/02/28 10:29:51;;;;;;;10.20;8.00;;;;;;;7.50;97.26;101254.58;102864;1308;25448;-61
2024/02/28 10:32:17;;;;;;;13.70;8.00;;;;;;;7.45;97.25;101258.84;102534;1298;387140;-59
2024/02/28 10:34:44;;;;;;;11.50;8.00;;;;;;;7.43;97.37;101263.97;102796;1298;25326;-60
2024/02/28 10:37:09;;;;;;;8.20;6.80;;;;;;;7.43;97.41;101265.34;102892;1308;24445;-58
2024/02/28 10:39:35;;;;;;;8.90;7.90;;;;;;;7.41;97.21;101262.41;102741;1314;25448;-58
2024/02/28 10:42:03;;;;;;;9.50;8.20;;;;;;;7.39;97.39;101267.03;102751;1307;24511;-57
2024/02/28 10:44:30;;;;;;;12.00;8.20;;;;;;;7.40;97.30;101267.20;102818;1313;23726;-58
2024/02/28 10:46:57;;;;;;;7.70;7.00;;;;;;;7.32;97.17;101266.45;102877;1311;23099;-57
2024/02/28 10:49:26;;;;;;;12.20;8.20;;;;;;;7.29;97.11;101265.74;102839;1308;23285;-57
2024/02/28 10:51:56;;;;;;;10.80;8.60;;;;;;;7.30;97.22;101267.82;102904;1298;22602;-59
2024/02/28 10:54:24;;;;;;;10.10;8.30;;;;;;;7.29;97.10;101267.98;102907;1308;26716;-59
2024/02/28 10:56:51;;;;;;;9.30;8.20;;;;;;;7.23;97.00;101272.77;102826;1313;25529;-57
2024/02/28 10:59:17;;;;;;;9.80;8.60;;;;;;;7.23;97.04;101280.99;102858;1314;22713;-57
2024/02/28 11:01:44;;;;;;;10.30;8.60;;;;;;;7.14;99.63;101280.73;102835;1292;23499;-60
2024/02/28 11:04:10;;;;;;;8.40;7.50;;;;;;;7.13;100.00;101284.51;102971;1308;24277;-58
2024/02/28 11:06:51;;;;;;;8.10;7.10;;;;;;;7.19;98.20;101280.95;102733;1309;24764;-58